sensor_id;sensor_type;location;lat;lon;timestamp;temperature;humidity
1075;DHT22;526;51.392;12.448;2023-04-29T00:00:50;11.50;97.30
1075;DHT22;526;51.392;12.448;2023-04-29T00:03:16;11.60;97.30
1075;DHT22;526;51.392;12.448;2023-04-29T00:05:43;11.60;97.30
1075;DHT22;526;51.392;12.448;2023-04-29T00:08:08;11.60;97.30
1075;DHT22;526;51.392;12.448;2023-04-29T00:10:34;11.70;97.30
1075;DHT22;526;51.392;12.448;2023-04-29T00:12:59;11.70;97.30
1075;DHT22;526;51.392;12.448;2023-04-29T00:15:25;11.70;97.30
1075;DHT22;526;51.392;12.448;2023-04-29T00:17:50;11.70;97.30
1075;DHT22;526;51.392;12.448;2023-04-29T00:20:16;11.80;97.30
1075;DHT22;526;51.392;12.448;2023-04-29T00:22:42;11.80;97.30
1075;DHT22;526;51.392;12.448;2023-04-29T00:25:08;11.80;97.30
1075;DHT22;526;51.392;12.448;2023-04-29T00:27:33;11.80;97.30
1075;DHT22;526;51.392;12.448;2023-04-29T00:29:59;11.80;97.30
1075;DHT22;526;51.392;12.448;2023-04-29T00:32:24;11.80;97.30
1075;DHT22;526;51.392;12.448;2023-04-29T00:34:50;11.80;97.30
1075;DHT22;526;51.392;12.448;2023-04-29T00:37:15;11.80;97.30
1075;DHT22;526;51.392;12.448;2023-04-29T00:39:41;11.80;97.30
1075;DHT22;526;51.392;12.448;2023-04-29T00:42:07;11.80;97.30
1075;DHT22;526;51.392;12.448;2023-04-29T00:44:33;11.80;97.30
1075;DHT22;526;51.392;12.448;2023-04-29T00:46:59;11.80;97.30
1075;DHT22;526;51.392;12.448;2023-04-29T00:49:25;11.80;97.30
1075;DHT22;526;51.392;12.448;2023-04-29T00:51:51;11.80;97.30
1075;DHT22;526;51.392;12.448;2023-04-29T00:54:17;11.70;97.30
1075;DHT22;526;51.392;12.448;2023-04-29T00:56:44;11.70;97.30
1075;DHT22;526;51.392;12.448;2023-04-29T00:59:11;11.70;97.30
1075;DHT22;526;51.392;12.448;2023-04-29T01:01:37;11.70;97.30
1075;DHT22;526;51.392;12.448;2023-04-29T01:04:04;11.70;97.30
1075;DHT22;526;51.392;12.448;2023-04-29T01:12:32;11.70;97.30
1075;DHT22;526;51.392;12.448;2023-04-29T01:15:13;11.80;97.30
1075;DHT22;526;51.392;12.448;2023-04-29T01:17:55;11.80;97.30
1075;DHT22;526;51.392;12.448;2023-04-29T01:20:23;11.80;97.30
1075;DHT22;526;51.392;12.448;2023-04-29T01:22:49;11.80;97.30
1075;DHT22;526;51.392;12.448;2023-04-29T01:25:15;11.80;97.30
1075;DHT22;526;51.392;12.448;2023-04-29T01:33:16;11.80;97.30
1075;DHT22;526;51.392;12.448;2023-04-29T01:36:15;11.80;97.30
1075;DHT22;526;51.392;12.448;2023-04-29T01:38:49;11.70;97.30
1075;DHT22;526;51.392;12.448;2023-04-29T01:41:25;11.70;97.30
1075;DHT22;526;51.392;12.448;2023-04-29T01:43:55;11.70;97.30
1075;DHT22;526;51.392;12.448;2023-04-29T01:46:22;11.70;97.30
1075;DHT22;526;51.392;12.448;2023-04-29T01:48:52;11.70;97.30
1075;DHT22;526;51.392;12.448;2023-04-29T01:51:17;11.70;97.30
1075;DHT22;526;51.392;12.448;2023-04-29T01:53:43;11.70;97.30
1075;DHT22;526;51.392;12.448;2023-04-29T01:56:08;11.70;97.30
1075;DHT22;526;51.392;12.448;2023-04-29T01:58:34;11.70;97.30
1075;DHT22;526;51.392;12.448;2023-04-29T02:01:00;11.70;97.30
1075;DHT22;526;51.392;12.448;2023-04-29T02:03:25;11.70;97.30
1075;DHT22;526;51.392;12.448;2023-04-29T02:05:50;11.80;97.30
1075;DHT22;526;51.392;12.448;2023-04-29T02:08:16;11.80;97.30
1075;DHT22;526;51.392;12.448;2023-04-29T02:10:53;11.80;97.30
1075;DHT22;526;51.392;12.448;2023-04-29T02:13:19;11.80;97.30
1075;DHT22;526;51.392;12.448;2023-04-29T02:15:45;11.80;97.30
1075;DHT22;526;51.392;12.448;2023-04-29T02:18:10;11.80;97.30
1075;DHT22;526;51.392;12.448;2023-04-29T02:20:36;11.80;97.30
1075;DHT22;526;51.392;12.448;2023-04-29T02:23:01;11.80;97.30
1075;DHT22;526;51.392;12.448;2023-04-29T02:25:27;11.80;97.30
1075;DHT22;526;51.392;12.448;2023-04-29T02:27:52;11.80;97.30
1075;DHT22;526;51.392;12.448;2023-04-29T02:30:18;11.80;97.30
1075;DHT22;526;51.392;12.448;2023-04-29T02:32:43;11.80;97.30
1075;DHT22;526;51.392;12.448;2023-04-29T02:35:09;11.80;97.30
1075;DHT22;526;51.392;12.448;2023-04-29T02:37:34;11.80;97.30
1075;DHT22;526;51.392;12.448;2023-04-29T02:40:00;11.80;97.30
1075;DHT22;526;51.392;12.448;2023-04-29T02:42:26;11.80;97.30
1075;DHT22;526;51.392;12.448;2023-04-29T02:44:51;11.80;97.30
1075;DHT22;526;51.392;12.448;2023-04-29T02:47:17;11.90;97.30
1075;DHT22;526;51.392;12.448;2023-04-29T02:49:42;11.80;97.30
1075;DHT22;526;51.392;12.448;2023-04-29T02:52:08;11.80;97.30
1075;DHT22;526;51.392;12.448;2023-04-29T02:54:33;11.80;97.30
1075;DHT22;526;51.392;12.448;2023-04-29T02:56:59;11.80;97.30
1075;DHT22;526;51.392;12.448;2023-04-29T02:59:24;11.80;97.30
1075;DHT22;526;51.392;12.448;2023-04-29T03:01:53;11.80;97.30
1075;DHT22;526;51.392;12.448;2023-04-29T03:04:19;11.80;97.30
1075;DHT22;526;51.392;12.448;2023-04-29T03:06:44;11.80;97.30
1075;DHT22;526;51.392;12.448;2023-04-29T03:09:10;11.80;97.30
1075;DHT22;526;51.392;12.448;2023-04-29T03:11:37;11.80;97.30
1075;DHT22;526;51.392;12.448;2023-04-29T03:14:03;11.80;97.30
1075;DHT22;526;51.392;12.448;2023-04-29T03:16:29;11.80;97.30
1075;DHT22;526;51.392;12.448;2023-04-29T03:18:55;11.80;97.30
1075;DHT22;526;51.392;12.448;2023-04-29T03:21:21;11.80;97.30
1075;DHT22;526;51.392;12.448;2023-04-29T03:23:46;11.80;97.30
1075;DHT22;526;51.392;12.448;2023-04-29T03:26:12;11.80;97.30
1075;DHT22;526;51.392;12.448;2023-04-29T03:28:37;11.80;97.30
1075;DHT22;526;51.392;12.448;2023-04-29T03:31:03;11.80;97.30
1075;DHT22;526;51.392;12.448;2023-04-29T03:33:28;11.80;97.30
1075;DHT22;526;51.392;12.448;2023-04-29T03:35:54;11.80;97.30
1075;DHT22;526;51.392;12.448;2023-04-29T03:38:20;11.80;97.30
1075;DHT22;526;51.392;12.448;2023-04-29T03:40:45;11.80;97.30
1075;DHT22;526;51.392;12.448;2023-04-29T03:43:11;11.70;97.30
1075;DHT22;526;51.392;12.448;2023-04-29T03:45:38;11.70;97.30
1075;DHT22;526;51.392;12.448;2023-04-29T03:48:04;11.70;97.30
1075;DHT22;526;51.392;12.448;2023-04-29T03:50:29;11.70;97.30
1075;DHT22;526;51.392;12.448;2023-04-29T03:52:55;11.70;97.30
1075;DHT22;526;51.392;12.448;2023-04-29T03:55:22;11.70;97.30
1075;DHT22;526;51.392;12.448;2023-04-29T03:57:47;11.70;97.30
1075;DHT22;526;51.392;12.448;2023-04-29T04:00:13;11.70;97.30
1075;DHT22;526;51.392;12.448;2023-04-29T04:02:39;11.70;97.30
1075;DHT22;526;51.392;12.448;2023-04-29T04:05:04;11.70;97.30
1075;DHT22;526;51.392;12.448;2023-04-29T04:07:30;11.80;97.30
1075;DHT22;526;51.392;12.448;2023-04-29T04:09:55;11.80;97.30
1075;DHT22;526;51.392;12.448;2023-04-29T04:12:21;11.80;97.30
1075;DHT22;526;51.392;12.448;2023-04-29T04:14:46;11.80;97.30
1075;DHT22;526;51.392;12.448;2023-04-29T04:17:12;11.80;97.30
1075;DHT22;526;51.392;12.448;2023-04-29T04:19:37;11.80;97.30
1075;DHT22;526;51.392;12.448;2023-04-29T04:22:03;11.80;97.30
1075;DHT22;526;51.392;12.448;2023-04-29T04:24:29;11.80;97.30
1075;DHT22;526;51.392;12.448;2023-04-29T04:26:54;11.80;97.30
1075;DHT22;526;51.392;12.448;2023-04-29T04:29:20;11.80;97.30
1075;DHT22;526;51.392;12.448;2023-04-29T04:31:45;11.90;97.30
1075;DHT22;526;51.392;12.448;2023-04-29T04:34:11;11.90;97.30
1075;DHT22;526;51.392;12.448;2023-04-29T04:36:36;11.90;97.30
1075;DHT22;526;51.392;12.448;2023-04-29T04:39:02;11.90;97.30
1075;DHT22;526;51.392;12.448;2023-04-29T04:41:28;12.00;97.30
1075;DHT22;526;51.392;12.448;2023-04-29T04:43:56;12.00;97.30
1075;DHT22;526;51.392;12.448;2023-04-29T04:46:21;12.00;97.30
1075;DHT22;526;51.392;12.448;2023-04-29T04:48:47;12.00;97.30
1075;DHT22;526;51.392;12.448;2023-04-29T04:51:13;12.00;97.30
1075;DHT22;526;51.392;12.448;2023-04-29T04:53:39;12.10;97.30
1075;DHT22;526;51.392;12.448;2023-04-29T04:56:05;12.10;97.30
1075;DHT22;526;51.392;12.448;2023-04-29T04:58:31;12.10;97.30
1075;DHT22;526;51.392;12.448;2023-04-29T05:00:58;12.10;97.30
1075;DHT22;526;51.392;12.448;2023-04-29T05:03:24;12.20;97.30
1075;DHT22;526;51.392;12.448;2023-04-29T05:05:56;12.20;97.30
1075;DHT22;526;51.392;12.448;2023-04-29T05:08:23;12.20;97.30
1075;DHT22;526;51.392;12.448;2023-04-29T05:10:48;12.20;97.30
1075;DHT22;526;51.392;12.448;2023-04-29T05:13:14;12.20;97.30
1075;DHT22;526;51.392;12.448;2023-04-29T05:15:40;12.20;97.30
1075;DHT22;526;51.392;12.448;2023-04-29T05:18:06;12.20;97.30
1075;DHT22;526;51.392;12.448;2023-04-29T05:20:31;12.20;97.30
1075;DHT22;526;51.392;12.448;2023-04-29T05:22:57;12.20;97.30
1075;DHT22;526;51.392;12.448;2023-04-29T05:25:22;12.20;97.30
1075;DHT22;526;51.392;12.448;2023-04-29T05:27:48;12.20;97.30
1075;DHT22;526;51.392;12.448;2023-04-29T05:30:13;12.20;97.30
1075;DHT22;526;51.392;12.448;2023-04-29T05:32:40;12.30;97.30
1075;DHT22;526;51.392;12.448;2023-04-29T05:35:06;12.30;97.30
1075;DHT22;526;51.392;12.448;2023-04-29T05:37:31;12.30;97.30
1075;DHT22;526;51.392;12.448;2023-04-29T05:39:57;12.30;97.30
1075;DHT22;526;51.392;12.448;2023-04-29T05:42:23;12.30;97.30
1075;DHT22;526;51.392;12.448;2023-04-29T05:44:49;12.30;97.30
1075;DHT22;526;51.392;12.448;2023-04-29T05:47:15;12.30;97.30
1075;DHT22;526;51.392;12.448;2023-04-29T05:49:40;12.30;97.30
1075;DHT22;526;51.392;12.448;2023-04-29T05:52:06;12.30;97.30
1075;DHT22;526;51.392;12.448;2023-04-29T05:54:34;12.30;97.30
1075;DHT22;526;51.392;12.448;2023-04-29T05:57:00;12.30;97.30
1075;DHT22;526;51.392;12.448;2023-04-29T05:59:31;12.40;97.30
1075;DHT22;526;51.392;12.448;2023-04-29T06:01:57;12.40;97.30
1075;DHT22;526;51.392;12.448;2023-04-29T06:04:23;12.40;97.30
1075;DHT22;526;51.392;12.448;2023-04-29T06:06:50;12.40;97.30
1075;DHT22;526;51.392;12.448;2023-04-29T06:09:16;12.50;97.30
1075;DHT22;526;51.392;12.448;2023-04-29T06:11:41;12.50;97.30
1075;DHT22;526;51.392;12.448;2023-04-29T06:14:08;12.50;97.30
1075;DHT22;526;51.392;12.448;2023-04-29T06:16:34;12.50;97.30
1075;DHT22;526;51.392;12.448;2023-04-29T06:18:59;12.60;97.30
1075;DHT22;526;51.392;12.448;2023-04-29T06:21:26;12.60;97.30
1075;DHT22;526;51.392;12.448;2023-04-29T06:23:52;12.70;97.30
1075;DHT22;526;51.392;12.448;2023-04-29T06:26:18;12.70;97.30
1075;DHT22;526;51.392;12.448;2023-04-29T06:28:45;12.70;97.30
1075;DHT22;526;51.392;12.448;2023-04-29T06:31:11;12.80;97.30
1075;DHT22;526;51.392;12.448;2023-04-29T06:33:36;12.80;97.30
1075;DHT22;526;51.392;12.448;2023-04-29T06:36:02;12.90;97.30
1075;DHT22;526;51.392;12.448;2023-04-29T06:38:28;12.80;97.30
1075;DHT22;526;51.392;12.448;2023-04-29T06:40:54;12.80;97.30
1075;DHT22;526;51.392;12.448;2023-04-29T06:43:20;12.80;97.30
1075;DHT22;526;51.392;12.448;2023-04-29T06:45:46;12.80;97.30
1075;DHT22;526;51.392;12.448;2023-04-29T06:48:11;12.80;97.30
1075;DHT22;526;51.392;12.448;2023-04-29T06:50:37;12.80;97.30
1075;DHT22;526;51.392;12.448;2023-04-29T06:53:02;12.80;97.30
1075;DHT22;526;51.392;12.448;2023-04-29T06:55:28;12.80;97.30
1075;DHT22;526;51.392;12.448;2023-04-29T06:57:53;12.80;97.30
1075;DHT22;526;51.392;12.448;2023-04-29T07:00:26;12.80;97.30
1075;DHT22;526;51.392;12.448;2023-04-29T07:03:13;12.80;97.30
1075;DHT22;526;51.392;12.448;2023-04-29T07:05:57;12.80;97.30
1075;DHT22;526;51.392;12.448;2023-04-29T07:08:22;12.90;97.30
1075;DHT22;526;51.392;12.448;2023-04-29T07:10:55;13.00;97.30
1075;DHT22;526;51.392;12.448;2023-04-29T07:13:21;13.00;97.30
1075;DHT22;526;51.392;12.448;2023-04-29T07:15:47;13.10;97.30
1075;DHT22;526;51.392;12.448;2023-04-29T07:18:12;13.10;97.30
1075;DHT22;526;51.392;12.448;2023-04-29T07:20:38;13.10;97.30
1075;DHT22;526;51.392;12.448;2023-04-29T07:23:04;13.10;97.30
1075;DHT22;526;51.392;12.448;2023-04-29T07:25:29;13.10;97.30
1075;DHT22;526;51.392;12.448;2023-04-29T07:27:55;13.20;97.30
1075;DHT22;526;51.392;12.448;2023-04-29T07:30:21;13.20;97.30
1075;DHT22;526;51.392;12.448;2023-04-29T07:32:47;13.30;97.30
1075;DHT22;526;51.392;12.448;2023-04-29T07:35:13;13.30;97.30
1075;DHT22;526;51.392;12.448;2023-04-29T07:37:39;13.30;97.30
1075;DHT22;526;51.392;12.448;2023-04-29T07:40:06;13.30;97.30
1075;DHT22;526;51.392;12.448;2023-04-29T07:42:31;13.30;97.30
1075;DHT22;526;51.392;12.448;2023-04-29T07:44:57;13.30;97.30
1075;DHT22;526;51.392;12.448;2023-04-29T07:47:22;13.30;97.30
1075;DHT22;526;51.392;12.448;2023-04-29T07:49:48;13.40;97.30
1075;DHT22;526;51.392;12.448;2023-04-29T07:52:13;13.50;97.30
1075;DHT22;526;51.392;12.448;2023-04-29T07:54:39;13.50;97.30
1075;DHT22;526;51.392;12.448;2023-04-29T07:57:05;13.50;97.30
1075;DHT22;526;51.392;12.448;2023-04-29T07:59:31;13.50;97.30
1075;DHT22;526;51.392;12.448;2023-04-29T08:01:56;13.50;97.30
1075;DHT22;526;51.392;12.448;2023-04-29T08:04:22;13.50;97.30
1075;DHT22;526;51.392;12.448;2023-04-29T08:06:47;13.50;97.30
1075;DHT22;526;51.392;12.448;2023-04-29T08:09:14;13.50;97.30
1075;DHT22;526;51.392;12.448;2023-04-29T08:11:40;13.40;97.30
1075;DHT22;526;51.392;12.448;2023-04-29T08:14:06;13.30;97.30
1075;DHT22;526;51.392;12.448;2023-04-29T08:16:31;13.20;97.30
1075;DHT22;526;51.392;12.448;2023-04-29T08:18:57;13.10;97.30
1075;DHT22;526;51.392;12.448;2023-04-29T08:21:22;13.00;97.30
1075;DHT22;526;51.392;12.448;2023-04-29T08:23:48;12.90;97.30
1075;DHT22;526;51.392;12.448;2023-04-29T08:26:14;12.80;97.30
1075;DHT22;526;51.392;12.448;2023-04-29T08:28:39;12.70;97.30
1075;DHT22;526;51.392;12.448;2023-04-29T08:31:05;12.70;97.30
1075;DHT22;526;51.392;12.448;2023-04-29T08:33:38;12.70;97.30
1075;DHT22;526;51.392;12.448;2023-04-29T08:36:03;12.80;97.30
1075;DHT22;526;51.392;12.448;2023-04-29T08:38:29;12.90;97.30
1075;DHT22;526;51.392;12.448;2023-04-29T08:40:55;13.10;97.30
1075;DHT22;526;51.392;12.448;2023-04-29T08:43:21;13.20;97.30
1075;DHT22;526;51.392;12.448;2023-04-29T08:45:50;13.20;97.30
1075;DHT22;526;51.392;12.448;2023-04-29T08:48:16;13.10;97.30
1075;DHT22;526;51.392;12.448;2023-04-29T08:50:43;13.10;97.30
1075;DHT22;526;51.392;12.448;2023-04-29T08:53:09;13.10;97.30
1075;DHT22;526;51.392;12.448;2023-04-29T08:55:39;13.10;97.30
1075;DHT22;526;51.392;12.448;2023-04-29T08:58:06;13.10;97.30
1075;DHT22;526;51.392;12.448;2023-04-29T09:00:33;13.10;97.30
1075;DHT22;526;51.392;12.448;2023-04-29T09:05:48;13.20;97.30
1075;DHT22;526;51.392;12.448;2023-04-29T09:08:17;13.30;97.30
1075;DHT22;526;51.392;12.448;2023-04-29T09:10:42;13.40;97.30
1075;DHT22;526;51.392;12.448;2023-04-29T09:13:08;13.40;97.30
1075;DHT22;526;51.392;12.448;2023-04-29T09:15:37;13.40;97.30
1075;DHT22;526;51.392;12.448;2023-04-29T09:18:07;13.40;97.30
1075;DHT22;526;51.392;12.448;2023-04-29T09:20:35;13.40;97.30
1075;DHT22;526;51.392;12.448;2023-04-29T09:23:08;13.50;97.30
1075;DHT22;526;51.392;12.448;2023-04-29T09:25:36;13.50;97.30
1075;DHT22;526;51.392;12.448;2023-04-29T09:28:14;13.40;97.30
1075;DHT22;526;51.392;12.448;2023-04-29T09:30:46;13.20;97.30
1075;DHT22;526;51.392;12.448;2023-04-29T09:33:14;13.20;97.30
1075;DHT22;526;51.392;12.448;2023-04-29T09:35:44;13.20;97.30
1075;DHT22;526;51.392;12.448;2023-04-29T09:38:14;13.30;97.30
1075;DHT22;526;51.392;12.448;2023-04-29T09:40:41;13.40;97.30
1075;DHT22;526;51.392;12.448;2023-04-29T09:43:13;13.50;97.30
1075;DHT22;526;51.392;12.448;2023-04-29T09:45:46;13.50;97.30
1075;DHT22;526;51.392;12.448;2023-04-29T09:48:13;13.40;97.30
1075;DHT22;526;51.392;12.448;2023-04-29T09:50:40;13.30;97.30
1075;DHT22;526;51.392;12.448;2023-04-29T09:53:28;13.10;97.30
1075;DHT22;526;51.392;12.448;2023-04-29T09:56:01;12.90;97.30
1075;DHT22;526;51.392;12.448;2023-04-29T09:58:34;12.70;97.30
1075;DHT22;526;51.392;12.448;2023-04-29T10:01:06;12.60;97.30
1075;DHT22;526;51.392;12.448;2023-04-29T10:03:42;12.60;97.30
1075;DHT22;526;51.392;12.448;2023-04-29T10:06:09;12.60;97.30
1075;DHT22;526;51.392;12.448;2023-04-29T10:08:35;12.60;97.30
1075;DHT22;526;51.392;12.448;2023-04-29T10:11:02;12.60;97.30
1075;DHT22;526;51.392;12.448;2023-04-29T10:13:34;12.50;97.30
1075;DHT22;526;51.392;12.448;2023-04-29T10:18:51;12.30;97.30
1075;DHT22;526;51.392;12.448;2023-04-29T10:21:35;12.20;97.30
1075;DHT22;526;51.392;12.448;2023-04-29T10:24:10;12.20;97.30
1075;DHT22;526;51.392;12.448;2023-04-29T10:26:46;12.20;97.30
1075;DHT22;526;51.392;12.448;2023-04-29T10:29:12;12.40;97.30
1075;DHT22;526;51.392;12.448;2023-04-29T10:31:42;12.60;97.30
1075;DHT22;526;51.392;12.448;2023-04-29T10:34:08;12.60;97.30
1075;DHT22;526;51.392;12.448;2023-04-29T10:36:36;12.50;97.30
1075;DHT22;526;51.392;12.448;2023-04-29T10:39:03;12.30;97.30
1075;DHT22;526;51.392;12.448;2023-04-29T10:41:42;12.20;97.30
1075;DHT22;526;51.392;12.448;2023-04-29T10:44:10;12.00;97.30
1075;DHT22;526;51.392;12.448;2023-04-29T10:46:36;11.90;97.30
1075;DHT22;526;51.392;12.448;2023-04-29T10:49:06;11.80;97.30
1075;DHT22;526;51.392;12.448;2023-04-29T10:51:34;11.70;97.30
1075;DHT22;526;51.392;12.448;2023-04-29T10:54:09;11.70;97.30
1075;DHT22;526;51.392;12.448;2023-04-29T10:56:51;11.60;97.30
1075;DHT22;526;51.392;12.448;2023-04-29T11:02:08;11.40;97.30
1075;DHT22;526;51.392;12.448;2023-04-29T11:04:34;11.40;97.30
1075;DHT22;526;51.392;12.448;2023-04-29T11:07:03;11.50;97.30
1075;DHT22;526;51.392;12.448;2023-04-29T11:09:34;11.50;97.30
1075;DHT22;526;51.392;12.448;2023-04-29T11:12:03;11.50;97.30
1075;DHT22;526;51.392;12.448;2023-04-29T11:17:10;11.50;97.30
1075;DHT22;526;51.392;12.448;2023-04-29T11:19:41;11.50;97.30
1075;DHT22;526;51.392;12.448;2023-04-29T11:24:49;11.50;97.30
1075;DHT22;526;51.392;12.448;2023-04-29T11:27:16;11.50;97.30
1075;DHT22;526;51.392;12.448;2023-04-29T11:29:41;11.50;97.30
1075;DHT22;526;51.392;12.448;2023-04-29T11:32:09;11.40;97.30
1075;DHT22;526;51.392;12.448;2023-04-29T11:34:34;11.40;97.30
1075;DHT22;526;51.392;12.448;2023-04-29T11:37:02;11.40;97.30
1075;DHT22;526;51.392;12.448;2023-04-29T11:39:29;11.40;97.30
1075;DHT22;526;51.392;12.448;2023-04-29T11:42:06;11.40;97.30
1075;DHT22;526;51.392;12.448;2023-04-29T11:44:33;11.40;97.30
1075;DHT22;526;51.392;12.448;2023-04-29T11:47:06;11.40;97.30
1075;DHT22;526;51.392;12.448;2023-04-29T11:49:34;11.40;97.30
1075;DHT22;526;51.392;12.448;2023-04-29T11:52:01;11.40;97.30
1075;DHT22;526;51.392;12.448;2023-04-29T11:54:28;11.40;97.30
1075;DHT22;526;51.392;12.448;2023-04-29T11:56:55;11.40;97.30
1075;DHT22;526;51.392;12.448;2023-04-29T11:59:21;11.40;97.30
1075;DHT22;526;51.392;12.448;2023-04-29T12:01:48;11.40;97.30
1075;DHT22;526;51.392;12.448;2023-04-29T12:04:14;11.40;97.30
1075;DHT22;526;51.392;12.448;2023-04-29T12:06:40;11.50;97.30
1075;DHT22;526;51.392;12.448;2023-04-29T12:09:06;11.50;97.30
1075;DHT22;526;51.392;12.448;2023-04-29T12:11:31;11.50;97.30
1075;DHT22;526;51.392;12.448;2023-04-29T12:13:57;11.50;97.30
1075;DHT22;526;51.392;12.448;2023-04-29T12:16:25;11.50;97.30
1075;DHT22;526;51.392;12.448;2023-04-29T12:18:54;11.60;97.30
1075;DHT22;526;51.392;12.448;2023-04-29T12:21:20;11.80;97.30
1075;DHT22;526;51.392;12.448;2023-04-29T12:23:46;11.90;97.30
1075;DHT22;526;51.392;12.448;2023-04-29T12:26:12;12.10;97.30
1075;DHT22;526;51.392;12.448;2023-04-29T12:28:40;12.20;97.30
1075;DHT22;526;51.392;12.448;2023-04-29T12:31:08;12.30;97.30
1075;DHT22;526;51.392;12.448;2023-04-29T12:33:35;12.30;97.30
1075;DHT22;526;51.392;12.448;2023-04-29T12:36:01;12.40;97.30
1075;DHT22;526;51.392;12.448;2023-04-29T12:38:29;12.40;97.30
1075;DHT22;526;51.392;12.448;2023-04-29T12:40:57;12.50;97.30
1075;DHT22;526;51.392;12.448;2023-04-29T12:43:29;12.50;97.30
1075;DHT22;526;51.392;12.448;2023-04-29T12:46:02;12.60;97.30
1075;DHT22;526;51.392;12.448;2023-04-29T12:48:29;12.50;97.30
1075;DHT22;526;51.392;12.448;2023-04-29T12:50:59;12.60;97.30
1075;DHT22;526;51.392;12.448;2023-04-29T12:53:26;12.70;97.30
1075;DHT22;526;51.392;12.448;2023-04-29T12:55:52;12.80;97.30
1075;DHT22;526;51.392;12.448;2023-04-29T12:58:18;12.90;97.30
1075;DHT22;526;51.392;12.448;2023-04-29T13:00:44;13.10;97.30
1075;DHT22;526;51.392;12.448;2023-04-29T13:03:09;13.10;97.30
1075;DHT22;526;51.392;12.448;2023-04-29T13:05:35;13.20;97.30
1075;DHT22;526;51.392;12.448;2023-04-29T13:08:01;13.20;97.30
1075;DHT22;526;51.392;12.448;2023-04-29T13:10:26;13.40;97.30
1075;DHT22;526;51.392;12.448;2023-04-29T13:12:55;13.50;97.30
1075;DHT22;526;51.392;12.448;2023-04-29T13:15:21;13.50;97.30
1075;DHT22;526;51.392;12.448;2023-04-29T13:17:46;13.40;97.30
1075;DHT22;526;51.392;12.448;2023-04-29T13:20:12;13.40;97.30
1075;DHT22;526;51.392;12.448;2023-04-29T13:22:38;13.30;97.30
1075;DHT22;526;51.392;12.448;2023-04-29T13:25:04;13.10;97.30
1075;DHT22;526;51.392;12.448;2023-04-29T13:27:29;13.00;97.30
1075;DHT22;526;51.392;12.448;2023-04-29T13:29:55;12.90;97.30
1075;DHT22;526;51.392;12.448;2023-04-29T13:32:21;12.90;97.30
1075;DHT22;526;51.392;12.448;2023-04-29T13:34:49;12.80;97.30
1075;DHT22;526;51.392;12.448;2023-04-29T13:37:14;12.90;97.30
1075;DHT22;526;51.392;12.448;2023-04-29T13:39:41;12.90;97.30
1075;DHT22;526;51.392;12.448;2023-04-29T13:42:07;12.90;97.30
1075;DHT22;526;51.392;12.448;2023-04-29T13:44:32;12.90;97.30
1075;DHT22;526;51.392;12.448;2023-04-29T13:46:58;12.90;97.30
1075;DHT22;526;51.392;12.448;2023-04-29T13:49:24;13.00;97.30
1075;DHT22;526;51.392;12.448;2023-04-29T13:51:49;13.00;97.30
1075;DHT22;526;51.392;12.448;2023-04-29T13:54:15;13.10;97.30
1075;DHT22;526;51.392;12.448;2023-04-29T13:56:41;13.10;97.30
1075;DHT22;526;51.392;12.448;2023-04-29T13:59:07;13.20;97.30
1075;DHT22;526;51.392;12.448;2023-04-29T14:01:32;13.30;97.30
1075;DHT22;526;51.392;12.448;2023-04-29T14:03:58;13.40;97.30
1075;DHT22;526;51.392;12.448;2023-04-29T14:06:23;13.40;97.30
1075;DHT22;526;51.392;12.448;2023-04-29T14:08:49;13.50;97.30
1075;DHT22;526;51.392;12.448;2023-04-29T14:11:14;13.50;97.30
1075;DHT22;526;51.392;12.448;2023-04-29T14:13:41;13.50;97.30
1075;DHT22;526;51.392;12.448;2023-04-29T14:16:07;13.70;97.30
1075;DHT22;526;51.392;12.448;2023-04-29T14:18:33;13.90;97.30
1075;DHT22;526;51.392;12.448;2023-04-29T14:21:01;14.00;97.30
1075;DHT22;526;51.392;12.448;2023-04-29T14:23:26;14.20;97.30
1075;DHT22;526;51.392;12.448;2023-04-29T14:25:52;14.40;97.30
1075;DHT22;526;51.392;12.448;2023-04-29T14:28:18;14.40;97.30
1075;DHT22;526;51.392;12.448;2023-04-29T14:30:43;14.40;97.30
1075;DHT22;526;51.392;12.448;2023-04-29T14:33:09;14.40;97.30
1075;DHT22;526;51.392;12.448;2023-04-29T14:35:34;14.40;97.30
1075;DHT22;526;51.392;12.448;2023-04-29T14:38:00;14.40;97.30
1075;DHT22;526;51.392;12.448;2023-04-29T14:40:25;14.40;97.30
1075;DHT22;526;51.392;12.448;2023-04-29T14:42:51;14.40;97.30
1075;DHT22;526;51.392;12.448;2023-04-29T14:45:16;14.40;97.30
1075;DHT22;526;51.392;12.448;2023-04-29T14:47:42;14.40;97.30
1075;DHT22;526;51.392;12.448;2023-04-29T14:50:09;14.40;97.30
1075;DHT22;526;51.392;12.448;2023-04-29T14:52:34;14.40;97.30
1075;DHT22;526;51.392;12.448;2023-04-29T14:55:00;14.40;97.30
1075;DHT22;526;51.392;12.448;2023-04-29T14:57:26;14.30;97.30
1075;DHT22;526;51.392;12.448;2023-04-29T14:59:59;14.20;97.30
1075;DHT22;526;51.392;12.448;2023-04-29T15:02:27;14.10;97.30
1075;DHT22;526;51.392;12.448;2023-04-29T15:04:53;14.00;97.30
1075;DHT22;526;51.392;12.448;2023-04-29T15:07:21;14.00;97.30
1075;DHT22;526;51.392;12.448;2023-04-29T15:09:47;13.90;97.30
1075;DHT22;526;51.392;12.448;2023-04-29T15:12:12;13.80;97.30
1075;DHT22;526;51.392;12.448;2023-04-29T15:14:48;13.70;97.30
1075;DHT22;526;51.392;12.448;2023-04-29T15:17:23;13.70;97.30
1075;DHT22;526;51.392;12.448;2023-04-29T15:19:48;13.60;97.30
1075;DHT22;526;51.392;12.448;2023-04-29T15:22:16;13.60;97.30
1075;DHT22;526;51.392;12.448;2023-04-29T15:24:45;13.60;97.30
1075;DHT22;526;51.392;12.448;2023-04-29T15:27:19;13.60;97.30
1075;DHT22;526;51.392;12.448;2023-04-29T15:29:48;13.70;97.30
1075;DHT22;526;51.392;12.448;2023-04-29T15:32:16;13.70;97.30
1075;DHT22;526;51.392;12.448;2023-04-29T15:34:44;13.70;97.30
1075;DHT22;526;51.392;12.448;2023-04-29T15:37:10;13.70;97.30
1075;DHT22;526;51.392;12.448;2023-04-29T15:39:35;13.70;97.30
1075;DHT22;526;51.392;12.448;2023-04-29T15:42:01;13.80;97.30
1075;DHT22;526;51.392;12.448;2023-04-29T15:44:27;13.80;97.30
1075;DHT22;526;51.392;12.448;2023-04-29T15:46:53;13.90;97.30
1075;DHT22;526;51.392;12.448;2023-04-29T15:49:19;13.90;97.30
1075;DHT22;526;51.392;12.448;2023-04-29T15:51:45;13.90;97.30
1075;DHT22;526;51.392;12.448;2023-04-29T15:54:10;13.90;97.30
1075;DHT22;526;51.392;12.448;2023-04-29T15:56:36;13.90;97.30
1075;DHT22;526;51.392;12.448;2023-04-29T15:59:02;14.00;97.30
1075;DHT22;526;51.392;12.448;2023-04-29T16:01:27;14.00;97.30
1075;DHT22;526;51.392;12.448;2023-04-29T16:03:53;14.00;97.30
1075;DHT22;526;51.392;12.448;2023-04-29T16:06:18;14.00;97.30
1075;DHT22;526;51.392;12.448;2023-04-29T16:08:44;14.10;97.30
1075;DHT22;526;51.392;12.448;2023-04-29T16:11:10;14.10;97.30
1075;DHT22;526;51.392;12.448;2023-04-29T16:13:35;14.10;97.30
1075;DHT22;526;51.392;12.448;2023-04-29T16:16:01;14.10;97.30
1075;DHT22;526;51.392;12.448;2023-04-29T16:18:26;14.10;97.30
1075;DHT22;526;51.392;12.448;2023-04-29T16:20:52;14.00;97.30
1075;DHT22;526;51.392;12.448;2023-04-29T16:23:17;14.00;97.30
1075;DHT22;526;51.392;12.448;2023-04-29T16:25:43;14.00;97.30